sensor_id;sensor_type;location;lat;lon;timestamp;P1;durP1;ratioP1;P2;durP2;ratioP2
934;SDS011;454;53.254;10.400;2023-07-13T04:02:23;3.43;;;2.70;;
934;SDS011;454;53.254;10.400;2023-07-13T04:04:50;3.80;;;2.67;;
934;SDS011;454;53.254;10.400;2023-07-13T04:07:18;1.83;;;1.73;;
934;SDS011;454;53.254;10.400;2023-07-13T04:09:45;1.87;;;1.87;;
934;SDS011;454;53.254;10.400;2023-07-13T04:12:11;2.37;;;2.27;;
934;SDS011;454;53.254;10.400;2023-07-13T04:14:39;3.03;;;2.90;;
934;SDS011;454;53.254;10.400;2023-07-13T04:17:05;2.50;;;2.40;;
934;SDS011;454;53.254;10.400;2023-07-13T04:19:33;2.23;;;2.00;;
934;SDS011;454;53.254;10.400;2023-07-13T04:22:00;2.23;;;2.13;;
934;SDS011;454;53.254;10.400;2023-07-13T04:24:27;1.83;;;1.70;;
934;SDS011;454;53.254;10.400;2023-07-13T04:26:54;2.40;;;2.30;;
934;SDS011;454;53.254;10.400;2023-07-13T04:29:24;3.40;;;3.20;;
934;SDS011;454;53.254;10.400;2023-07-13T04:31:51;8.80;;;3.10;;
934;SDS011;454;53.254;10.400;2023-07-13T04:34:17;2.50;;;2.40;;
934;SDS011;454;53.254;10.400;2023-07-13T04:36:45;2.00;;;1.90;;
934;SDS011;454;53.254;10.400;2023-07-13T04:39:12;1.83;;;1.83;;
934;SDS011;454;53.254;10.400;2023-07-13T04:41:39;1.80;;;1.80;;
934;SDS011;454;53.254;10.400;2023-07-13T04:44:06;1.20;;;1.20;;
934;SDS011;454;53.254;10.400;2023-07-13T04:46:32;1.73;;;1.73;;
934;SDS011;454;53.254;10.400;2023-07-13T04:48:59;3.07;;;1.50;;
934;SDS011;454;53.254;10.400;2023-07-13T04:51:28;1.67;;;1.67;;
934;SDS011;454;53.254;10.400;2023-07-13T04:53:57;1.90;;;1.50;;
934;SDS011;454;53.254;10.400;2023-07-13T04:56:23;1.43;;;1.43;;
934;SDS011;454;53.254;10.400;2023-07-13T04:58:50;1.57;;;1.50;;
934;SDS011;454;53.254;10.400;2023-07-13T05:01:17;1.90;;;1.90;;
934;SDS011;454;53.254;10.400;2023-07-13T05:03:43;1.50;;;1.50;;
934;SDS011;454;53.254;10.400;2023-07-13T05:06:10;1.73;;;1.73;;
934;SDS011;454;53.254;10.400;2023-07-13T05:08:37;2.03;;;1.93;;
934;SDS011;454;53.254;10.400;2023-07-13T05:11:05;1.57;;;1.57;;
934;SDS011;454;53.254;10.400;2023-07-13T05:13:32;1.93;;;1.80;;
934;SDS011;454;53.254;10.400;2023-07-13T05:16:00;3.77;;;1.93;;
934;SDS011;454;53.254;10.400;2023-07-13T05:18:27;1.80;;;1.70;;
934;SDS011;454;53.254;10.400;2023-07-13T05:20:58;1.57;;;1.57;;
934;SDS011;454;53.254;10.400;2023-07-13T05:23:26;1.50;;;1.40;;
934;SDS011;454;53.254;10.400;2023-07-13T05:25:53;1.20;;;1.20;;
934;SDS011;454;53.254;10.400;2023-07-13T05:28:21;1.00;;;1.00;;
934;SDS011;454;53.254;10.400;2023-07-13T05:30:48;1.87;;;1.13;;
934;SDS011;454;53.254;10.400;2023-07-13T05:33:15;1.20;;;1.20;;
934;SDS011;454;53.254;10.400;2023-07-13T05:35:42;1.13;;;1.13;;
934;SDS011;454;53.254;10.400;2023-07-13T05:38:09;1.60;;;1.03;;
934;SDS011;454;53.254;10.400;2023-07-13T05:40:36;0.90;;;0.90;;
934;SDS011;454;53.254;10.400;2023-07-13T05:43:03;3.40;;;1.30;;
934;SDS011;454;53.254;10.400;2023-07-13T05:45:31;1.40;;;1.30;;
934;SDS011;454;53.254;10.400;2023-07-13T05:47:58;1.00;;;1.00;;
934;SDS011;454;53.254;10.400;2023-07-13T05:50:25;0.87;;;0.87;;
934;SDS011;454;53.254;10.400;2023-07-13T05:52:52;0.77;;;0.77;;
934;SDS011;454;53.254;10.400;2023-07-13T05:55:19;3.00;;;1.40;;
934;SDS011;454;53.254;10.400;2023-07-13T05:57:46;1.30;;;1.20;;
934;SDS011;454;53.254;10.400;2023-07-13T06:00:13;0.93;;;0.93;;
934;SDS011;454;53.254;10.400;2023-07-13T06:02:41;0.60;;;0.60;;
934;SDS011;454;53.254;10.400;2023-07-13T06:05:08;1.80;;;0.93;;
934;SDS011;454;53.254;10.400;2023-07-13T06:07:35;0.70;;;0.70;;
934;SDS011;454;53.254;10.400;2023-07-13T06:10:02;1.00;;;1.00;;
934;SDS011;454;53.254;10.400;2023-07-13T06:12:29;0.73;;;0.67;;
934;SDS011;454;53.254;10.400;2023-07-13T06:14:56;0.80;;;0.80;;
934;SDS011;454;53.254;10.400;2023-07-13T06:17:22;0.60;;;0.60;;
934;SDS011;454;53.254;10.400;2023-07-13T06:19:50;0.80;;;0.80;;
934;SDS011;454;53.254;10.400;2023-07-13T06:22:17;0.80;;;0.77;;
934;SDS011;454;53.254;10.400;2023-07-13T06:24:44;0.73;;;0.73;;
934;SDS011;454;53.254;10.400;2023-07-13T06:27:10;0.90;;;0.90;;
934;SDS011;454;53.254;10.400;2023-07-13T06:29:37;0.90;;;0.90;;
934;SDS011;454;53.254;10.400;2023-07-13T06:32:05;1.43;;;1.10;;
934;SDS011;454;53.254;10.400;2023-07-13T06:34:32;1.30;;;1.20;;
934;SDS011;454;53.254;10.400;2023-07-13T06:37:00;1.50;;;1.00;;
934;SDS011;454;53.254;10.400;2023-07-13T06:39:27;0.80;;;0.80;;
934;SDS011;454;53.254;10.400;2023-07-13T06:41:54;0.67;;;0.67;;
934;SDS011;454;53.254;10.400;2023-07-13T06:44:21;0.80;;;0.80;;
934;SDS011;454;53.254;10.400;2023-07-13T06:46:47;2.13;;;0.90;;
934;SDS011;454;53.254;10.400;2023-07-13T06:49:14;1.43;;;1.27;;
934;SDS011;454;53.254;10.400;2023-07-13T06:51:41;1.23;;;1.23;;
934;SDS011;454;53.254;10.400;2023-07-13T06:54:09;2.20;;;1.13;;
934;SDS011;454;53.254;10.400;2023-07-13T06:56:35;1.17;;;0.60;;
934;SDS011;454;53.254;10.400;2023-07-13T06:59:02;1.13;;;0.60;;
934;SDS011;454;53.254;10.400;2023-07-13T07:01:29;2.67;;;0.70;;
934;SDS011;454;53.254;10.400;2023-07-13T07:03:55;2.50;;;0.90;;
934;SDS011;454;53.254;10.400;2023-07-13T07:06:22;2.37;;;0.90;;
934;SDS011;454;53.254;10.400;2023-07-13T07:08:49;1.00;;;1.00;;
934;SDS011;454;53.254;10.400;2023-07-13T07:11:18;1.70;;;1.10;;
934;SDS011;454;53.254;10.400;2023-07-13T07:13:47;0.80;;;0.80;;
934;SDS011;454;53.254;10.400;2023-07-13T07:16:14;0.50;;;0.50;;
934;SDS011;454;53.254;10.400;2023-07-13T07:18:40;0.97;;;0.97;;
934;SDS011;454;53.254;10.400;2023-07-13T07:21:07;0.93;;;0.93;;
934;SDS011;454;53.254;10.400;2023-07-13T07:23:34;1.47;;;0.70;;
934;SDS011;454;53.254;10.400;2023-07-13T07:26:01;1.90;;;0.73;;
934;SDS011;454;53.254;10.400;2023-07-13T07:28:29;0.67;;;0.67;;
934;SDS011;454;53.254;10.400;2023-07-13T07:30:56;1.30;;;1.00;;
934;SDS011;454;53.254;10.400;2023-07-13T07:33:24;1.10;;;1.10;;
934;SDS011;454;53.254;10.400;2023-07-13T07:35:51;1.23;;;0.50;;
934;SDS011;454;53.254;10.400;2023-07-13T07:38:18;9.07;;;1.47;;
934;SDS011;454;53.254;10.400;2023-07-13T07:40:45;1.00;;;1.00;;
934;SDS011;454;53.254;10.400;2023-07-13T07:43:12;0.60;;;0.60;;
934;SDS011;454;53.254;10.400;2023-07-13T07:45:40;0.87;;;0.87;;
934;SDS011;454;53.254;10.400;2023-07-13T07:48:07;1.60;;;1.50;;
934;SDS011;454;53.254;10.400;2023-07-13T07:50:34;1.80;;;0.80;;
934;SDS011;454;53.254;10.400;2023-07-13T07:53:01;1.30;;;1.20;;
934;SDS011;454;53.254;10.400;2023-07-13T07:55:32;0.90;;;0.90;;
934;SDS011;454;53.254;10.400;2023-07-13T07:57:59;3.40;;;1.37;;
934;SDS011;454;53.254;10.400;2023-07-13T08:00:26;1.33;;;0.63;;
934;SDS011;454;53.254;10.400;2023-07-13T08:02:57;0.73;;;0.70;;
934;SDS011;454;53.254;10.400;2023-07-13T08:05:24;2.83;;;1.30;;
934;SDS011;454;53.254;10.400;2023-07-13T08:07:51;3.57;;;1.17;;
934;SDS011;454;53.254;10.400;2023-07-13T08:10:18;0.87;;;0.80;;
934;SDS011;454;53.254;10.400;2023-07-13T08:12:45;1.50;;;1.40;;
934;SDS011;454;53.254;10.400;2023-07-13T08:15:14;0.77;;;0.77;;
934;SDS011;454;53.254;10.400;2023-07-13T08:17:42;0.83;;;0.83;;
934;SDS011;454;53.254;10.400;2023-07-13T08:20:11;1.50;;;1.40;;
934;SDS011;454;53.254;10.400;2023-07-13T08:22:37;1.80;;;0.90;;
934;SDS011;454;53.254;10.400;2023-07-13T08:25:04;1.00;;;1.00;;
934;SDS011;454;53.254;10.400;2023-07-13T08:27:32;1.00;;;1.00;;
934;SDS011;454;53.254;10.400;2023-07-13T08:29:59;1.17;;;1.07;;
934;SDS011;454;53.254;10.400;2023-07-13T08:32:26;2.17;;;0.67;;
934;SDS011;454;53.254;10.400;2023-07-13T08:34:52;3.90;;;0.90;;
934;SDS011;454;53.254;10.400;2023-07-13T08:37:20;1.43;;;0.77;;
934;SDS011;454;53.254;10.400;2023-07-13T08:39:47;0.60;;;0.60;;
934;SDS011;454;53.254;10.400;2023-07-13T08:42:14;1.37;;;1.07;;
934;SDS011;454;53.254;10.400;2023-07-13T08:44:54;1.13;;;1.13;;
934;SDS011;454;53.254;10.400;2023-07-13T08:47:30;1.00;;;1.00;;
934;SDS011;454;53.254;10.400;2023-07-13T08:49:59;0.77;;;0.60;;
934;SDS011;454;53.254;10.400;2023-07-13T08:52:28;0.80;;;0.50;;
934;SDS011;454;53.254;10.400;2023-07-13T08:54:59;0.80;;;0.80;;
934;SDS011;454;53.254;10.400;2023-07-13T08:57:33;0.40;;;0.40;;
934;SDS011;454;53.254;10.400;2023-07-13T09:00:01;0.40;;;0.40;;
934;SDS011;454;53.254;10.400;2023-07-13T09:02:34;2.37;;;0.70;;
934;SDS011;454;53.254;10.400;2023-07-13T09:05:08;1.10;;;1.03;;
934;SDS011;454;53.254;10.400;2023-07-13T09:07:41;2.10;;;0.93;;
934;SDS011;454;53.254;10.400;2023-07-13T09:10:28;1.37;;;1.13;;
934;SDS011;454;53.254;10.400;2023-07-13T09:13:01;0.93;;;0.93;;
934;SDS011;454;53.254;10.400;2023-07-13T09:15:39;0.60;;;0.60;;
934;SDS011;454;53.254;10.400;2023-07-13T09:18:08;0.70;;;0.70;;
934;SDS011;454;53.254;10.400;2023-07-13T09:20:41;0.93;;;0.63;;
934;SDS011;454;53.254;10.400;2023-07-13T09:23:14;0.80;;;0.80;;
934;SDS011;454;53.254;10.400;2023-07-13T09:25:43;0.70;;;0.70;;
934;SDS011;454;53.254;10.400;2023-07-13T09:28:12;0.80;;;0.47;;
934;SDS011;454;53.254;10.400;2023-07-13T09:30:45;1.03;;;0.80;;
934;SDS011;454;53.254;10.400;2023-07-13T09:33:18;2.27;;;0.60;;
934;SDS011;454;53.254;10.400;2023-07-13T09:35:45;0.50;;;0.50;;
934;SDS011;454;53.254;10.400;2023-07-13T09:38:13;3.30;;;0.77;;
934;SDS011;454;53.254;10.400;2023-07-13T09:40:59;0.80;;;0.80;;
934;SDS011;454;53.254;10.400;2023-07-13T09:43:34;2.77;;;1.00;;
934;SDS011;454;53.254;10.400;2023-07-13T09:46:01;0.70;;;0.70;;
934;SDS011;454;53.254;10.400;2023-07-13T09:48:33;0.77;;;0.77;;
934;SDS011;454;53.254;10.400;2023-07-13T09:51:04;0.40;;;0.40;;
934;SDS011;454;53.254;10.400;2023-07-13T09:53:40;0.67;;;0.67;;
934;SDS011;454;53.254;10.400;2023-07-13T09:56:11;2.20;;;1.10;;
934;SDS011;454;53.254;10.400;2023-07-13T09:58:45;0.73;;;0.73;;
934;SDS011;454;53.254;10.400;2023-07-13T10:01:12;1.13;;;0.90;;
934;SDS011;454;53.254;10.400;2023-07-13T10:03:39;1.70;;;0.77;;
934;SDS011;454;53.254;10.400;2023-07-13T10:06:18;1.00;;;1.00;;
934;SDS011;454;53.254;10.400;2023-07-13T10:08:48;1.57;;;0.67;;
934;SDS011;454;53.254;10.400;2023-07-13T10:11:18;1.43;;;0.70;;
934;SDS011;454;53.254;10.400;2023-07-13T10:13:48;0.70;;;0.60;;
934;SDS011;454;53.254;10.400;2023-07-13T10:16:19;0.93;;;0.93;;
934;SDS011;454;53.254;10.400;2023-07-13T10:18:47;1.07;;;1.00;;
934;SDS011;454;53.254;10.400;2023-07-13T10:21:16;0.83;;;0.83;;
934;SDS011;454;53.254;10.400;2023-07-13T10:23:48;0.80;;;0.80;;
934;SDS011;454;53.254;10.400;2023-07-13T10:26:19;1.20;;;0.60;;
934;SDS011;454;53.254;10.400;2023-07-13T10:28:51;0.87;;;0.87;;
934;SDS011;454;53.254;10.400;2023-07-13T10:31:21;1.10;;;1.10;;
934;SDS011;454;53.254;10.400;2023-07-13T10:33:49;0.70;;;0.70;;
934;SDS011;454;53.254;10.400;2023-07-13T10:36:17;1.03;;;1.03;;
934;SDS011;454;53.254;10.400;2023-07-13T10:38:55;1.07;;;1.00;;
934;SDS011;454;53.254;10.400;2023-07-13T10:41:25;0.90;;;0.90;;
934;SDS011;454;53.254;10.400;2023-07-13T10:43:55;1.70;;;0.77;;
934;SDS011;454;53.254;10.400;2023-07-13T10:46:25;1.07;;;1.07;;
934;SDS011;454;53.254;10.400;2023-07-13T10:48:56;1.17;;;0.80;;
934;SDS011;454;53.254;10.400;2023-07-13T10:51:25;0.73;;;0.73;;
934;SDS011;454;53.254;10.400;2023-07-13T10:56:41;1.53;;;1.23;;
934;SDS011;454;53.254;10.400;2023-07-13T10:59:13;0.77;;;0.77;;
934;SDS011;454;53.254;10.400;2023-07-13T11:01:48;1.00;;;1.00;;
934;SDS011;454;53.254;10.400;2023-07-13T11:04:17;1.13;;;1.13;;
934;SDS011;454;53.254;10.400;2023-07-13T11:06:46;1.07;;;1.07;;
934;SDS011;454;53.254;10.400;2023-07-13T11:12:08;0.60;;;0.60;;
934;SDS011;454;53.254;10.400;2023-07-13T11:14:42;1.00;;;1.00;;
934;SDS011;454;53.254;10.400;2023-07-13T11:20:09;1.50;;;1.40;;
934;SDS011;454;53.254;10.400;2023-07-13T11:22:47;0.50;;;0.50;;
934;SDS011;454;53.254;10.400;2023-07-13T11:25:25;0.77;;;0.70;;
934;SDS011;454;53.254;10.400;2023-07-13T11:28:16;0.93;;;0.93;;
934;SDS011;454;53.254;10.400;2023-07-13T11:30:48;0.90;;;0.90;;
934;SDS011;454;53.254;10.400;2023-07-13T11:33:17;0.97;;;0.97;;
934;SDS011;454;53.254;10.400;2023-07-13T11:35:58;0.97;;;0.97;;
934;SDS011;454;53.254;10.400;2023-07-13T11:38:31;0.90;;;0.90;;
934;SDS011;454;53.254;10.400;2023-07-13T11:41:02;0.93;;;0.80;;
934;SDS011;454;53.254;10.400;2023-07-13T11:43:31;0.83;;;0.77;;
934;SDS011;454;53.254;10.400;2023-07-13T11:46:11;1.40;;;1.10;;
934;SDS011;454;53.254;10.400;2023-07-13T11:48:39;0.87;;;0.87;;
934;SDS011;454;53.254;10.400;2023-07-13T11:51:15;0.80;;;0.80;;
934;SDS011;454;53.254;10.400;2023-07-13T11:53:46;0.87;;;0.87;;
934;SDS011;454;53.254;10.400;2023-07-13T11:56:17;0.77;;;0.77;;
934;SDS011;454;53.254;10.400;2023-07-13T11:58:47;0.90;;;0.90;;
934;SDS011;454;53.254;10.400;2023-07-13T12:01:16;0.97;;;0.97;;
934;SDS011;454;53.254;10.400;2023-07-13T12:03:48;1.00;;;1.00;;
934;SDS011;454;53.254;10.400;2023-07-13T12:06:24;1.50;;;0.90;;
934;SDS011;454;53.254;10.400;2023-07-13T12:08:57;1.00;;;1.00;;
934;SDS011;454;53.254;10.400;2023-07-13T12:11:27;0.80;;;0.80;;
934;SDS011;454;53.254;10.400;2023-07-13T12:13:54;0.83;;;0.83;;
934;SDS011;454;53.254;10.400;2023-07-13T12:16:23;0.83;;;0.83;;
934;SDS011;454;53.254;10.400;2023-07-13T12:18:53;1.20;;;1.03;;
934;SDS011;454;53.254;10.400;2023-07-13T12:21:22;1.10;;;1.10;;
934;SDS011;454;53.254;10.400;2023-07-13T12:23:53;2.43;;;0.97;;
934;SDS011;454;53.254;10.400;2023-07-13T12:26:20;0.93;;;0.93;;
934;SDS011;454;53.254;10.400;2023-07-13T12:28:49;0.97;;;0.97;;
934;SDS011;454;53.254;10.400;2023-07-13T12:31:25;1.93;;;1.23;;
934;SDS011;454;53.254;10.400;2023-07-13T12:33:58;6.43;;;1.23;;
934;SDS011;454;53.254;10.400;2023-07-13T12:36:25;1.20;;;1.20;;
934;SDS011;454;53.254;10.400;2023-07-13T12:38:56;1.33;;;1.07;;
934;SDS011;454;53.254;10.400;2023-07-13T12:41:29;1.00;;;1.00;;
934;SDS011;454;53.254;10.400;2023-07-13T12:43:57;2.20;;;1.37;;
934;SDS011;454;53.254;10.400;2023-07-13T12:46:25;1.53;;;1.23;;
934;SDS011;454;53.254;10.400;2023-07-13T12:48:54;1.50;;;1.10;;
934;SDS011;454;53.254;10.400;2023-07-13T12:51:24;1.37;;;1.37;;
934;SDS011;454;53.254;10.400;2023-07-13T12:53:56;1.50;;;1.40;;
934;SDS011;454;53.254;10.400;2023-07-13T12:56:31;1.70;;;1.20;;
934;SDS011;454;53.254;10.400;2023-07-13T12:59:01;1.57;;;1.57;;
934;SDS011;454;53.254;10.400;2023-07-13T13:01:31;1.57;;;1.57;;
934;SDS011;454;53.254;10.400;2023-07-13T13:04:02;3.60;;;1.60;;
934;SDS011;454;53.254;10.400;2023-07-13T13:06:32;1.67;;;1.57;;
934;SDS011;454;53.254;10.400;2023-07-13T13:09:01;1.90;;;1.90;;
934;SDS011;454;53.254;10.400;2023-07-13T13:11:29;1.27;;;1.27;;
934;SDS011;454;53.254;10.400;2023-07-13T13:13:57;1.10;;;1.10;;
934;SDS011;454;53.254;10.400;2023-07-13T13:16:29;2.20;;;1.87;;
934;SDS011;454;53.254;10.400;2023-07-13T13:18:59;1.70;;;1.60;;
934;SDS011;454;53.254;10.400;2023-07-13T13:21:30;15.83;;;1.90;;
934;SDS011;454;53.254;10.400;2023-07-13T13:23:57;1.50;;;1.50;;
934;SDS011;454;53.254;10.400;2023-07-13T13:26:24;2.17;;;1.63;;
934;SDS011;454;53.254;10.400;2023-07-13T13:28:51;6.53;;;1.90;;
934;SDS011;454;53.254;10.400;2023-07-13T13:31:18;1.90;;;1.80;;
934;SDS011;454;53.254;10.400;2023-07-13T13:33:46;1.87;;;1.77;;
934;SDS011;454;53.254;10.400;2023-07-13T13:36:14;1.60;;;1.60;;
934;SDS011;454;53.254;10.400;2023-07-13T13:38:42;2.53;;;2.23;;
934;SDS011;454;53.254;10.400;2023-07-13T13:41:09;1.67;;;1.67;;
934;SDS011;454;53.254;10.400;2023-07-13T13:43:38;1.80;;;1.70;;
934;SDS011;454;53.254;10.400;2023-07-13T13:46:11;1.40;;;1.40;;
934;SDS011;454;53.254;10.400;2023-07-13T13:48:48;1.70;;;1.60;;
934;SDS011;454;53.254;10.400;2023-07-13T13:51:16;1.87;;;1.87;;
934;SDS011;454;53.254;10.400;2023-07-13T13:53:44;2.00;;;2.00;;
934;SDS011;454;53.254;10.400;2023-07-13T13:56:12;1.70;;;1.60;;
934;SDS011;454;53.254;10.400;2023-07-13T13:58:39;2.97;;;2.10;;
934;SDS011;454;53.254;10.400;2023-07-13T14:01:09;2.10;;;2.00;;
934;SDS011;454;53.254;10.400;2023-07-13T14:03:39;1.93;;;1.93;;
934;SDS011;454;53.254;10.400;2023-07-13T14:06:08;2.40;;;2.33;;
934;SDS011;454;53.254;10.400;2023-07-13T14:08:38;1.53;;;1.53;;
934;SDS011;454;53.254;10.400;2023-07-13T14:11:05;2.37;;;2.27;;
934;SDS011;454;53.254;10.400;2023-07-13T14:13:38;2.10;;;2.00;;
934;SDS011;454;53.254;10.400;2023-07-13T14:16:09;2.40;;;2.20;;
934;SDS011;454;53.254;10.400;2023-07-13T14:18:38;3.50;;;2.23;;
934;SDS011;454;53.254;10.400;2023-07-13T14:21:09;1.63;;;1.63;;
934;SDS011;454;53.254;10.400;2023-07-13T14:23:39;3.60;;;1.77;;
934;SDS011;454;53.254;10.400;2023-07-13T14:26:08;2.20;;;2.10;;
934;SDS011;454;53.254;10.400;2023-07-13T14:28:37;1.63;;;1.63;;
934;SDS011;454;53.254;10.400;2023-07-13T14:31:07;2.10;;;2.10;;
934;SDS011;454;53.254;10.400;2023-07-13T14:33:35;1.80;;;1.70;;
934;SDS011;454;53.254;10.400;2023-07-13T14:36:02;1.60;;;1.60;;
934;SDS011;454;53.254;10.400;2023-07-13T14:38:30;2.20;;;2.10;;
934;SDS011;454;53.254;10.400;2023-07-13T14:40:57;2.33;;;2.33;;
934;SDS011;454;53.254;10.400;2023-07-13T14:43:24;8.60;;;2.27;;
934;SDS011;454;53.254;10.400;2023-07-13T14:45:53;1.87;;;1.87;;
934;SDS011;454;53.254;10.400;2023-07-13T14:48:22;1.70;;;1.60;;
934;SDS011;454;53.254;10.400;2023-07-13T14:50:51;1.50;;;1.50;;
934;SDS011;454;53.254;10.400;2023-07-13T14:53:22;1.93;;;1.83;;
934;SDS011;454;53.254;10.400;2023-07-13T14:55:51;1.90;;;1.90;;
934;SDS011;454;53.254;10.400;2023-07-13T14:58:18;2.27;;;1.60;;
934;SDS011;454;53.254;10.400;2023-07-13T15:00:45;1.67;;;1.67;;
934;SDS011;454;53.254;10.400;2023-07-13T15:03:15;4.27;;;1.90;;
934;SDS011;454;53.254;10.400;2023-07-13T15:05:46;1.30;;;1.30;;
934;SDS011;454;53.254;10.400;2023-07-13T15:08:14;1.40;;;1.40;;
934;SDS011;454;53.254;10.400;2023-07-13T15:10:42;1.87;;;1.87;;
934;SDS011;454;53.254;10.400;2023-07-13T15:13:17;1.50;;;1.50;;
934;SDS011;454;53.254;10.400;2023-07-13T15:15:45;1.50;;;1.40;;
934;SDS011;454;53.254;10.400;2023-07-13T15:18:14;0.77;;;0.77;;
934;SDS011;454;53.254;10.400;2023-07-13T15:20:43;1.37;;;1.37;;
934;SDS011;454;53.254;10.400;2023-07-13T15:23:11;1.43;;;1.43;;
934;SDS011;454;53.254;10.400;2023-07-13T15:25:38;1.47;;;1.47;;
934;SDS011;454;53.254;10.400;2023-07-13T15:28:05;0.90;;;0.90;;
934;SDS011;454;53.254;10.400;2023-07-13T15:30:35;1.00;;;1.00;;
934;SDS011;454;53.254;10.400;2023-07-13T15:33:10;0.83;;;0.83;;
934;SDS011;454;53.254;10.400;2023-07-13T15:35:39;0.90;;;0.90;;
934;SDS011;454;53.254;10.400;2023-07-13T15:38:17;0.80;;;0.80;;
934;SDS011;454;53.254;10.400;2023-07-13T15:40:45;0.93;;;0.93;;
934;SDS011;454;53.254;10.400;2023-07-13T15:43:13;0.77;;;0.77;;
934;SDS011;454;53.254;10.400;2023-07-13T15:45:43;0.77;;;0.77;;
934;SDS011;454;53.254;10.400;2023-07-13T15:48:13;0.77;;;0.77;;
934;SDS011;454;53.254;10.400;2023-07-13T15:50:43;1.07;;;1.07;;
934;SDS011;454;53.254;10.400;2023-07-13T15:53:13;0.83;;;0.83;;
934;SDS011;454;53.254;10.400;2023-07-13T15:55:41;0.90;;;0.90;;
934;SDS011;454;53.254;10.400;2023-07-13T15:58:09;1.23;;;0.83;;
934;SDS011;454;53.254;10.400;2023-07-13T16:00:39;0.67;;;0.67;;
934;SDS011;454;53.254;10.400;2023-07-13T16:03:08;0.80;;;0.80;;
934;SDS011;454;53.254;10.400;2023-07-13T16:05:35;0.73;;;0.73;;
934;SDS011;454;53.254;10.400;2023-07-13T16:08:03;0.67;;;0.67;;
934;SDS011;454;53.254;10.400;2023-07-13T16:10:31;0.87;;;0.87;;
934;SDS011;454;53.254;10.400;2023-07-13T16:13:00;1.00;;;1.00;;
934;SDS011;454;53.254;10.400;2023-07-13T16:15:27;0.80;;;0.80;;
934;SDS011;454;53.254;10.400;2023-07-13T16:17:54;0.83;;;0.83;;
934;SDS011;454;53.254;10.400;2023-07-13T16:20:22;0.80;;;0.80;;
934;SDS011;454;53.254;10.400;2023-07-13T16:22:50;1.07;;;1.07;;
934;SDS011;454;53.254;10.400;2023-07-13T16:25:20;0.60;;;0.60;;
934;SDS011;454;53.254;10.400;2023-07-13T16:27:49;0.67;;;0.67;;
934;SDS011;454;53.254;10.400;2023-07-13T16:30:18;0.77;;;0.77;;
934;SDS011;454;53.254;10.400;2023-07-13T16:32:47;0.80;;;0.80;;
934;SDS011;454;53.254;10.400;2023-07-13T16:35:16;0.73;;;0.73;;
934;SDS011;454;53.254;10.400;2023-07-13T16:37:44;1.43;;;1.33;;
934;SDS011;454;53.254;10.400;2023-07-13T16:40:18;0.50;;;0.50;;
934;SDS011;454;53.254;10.400;2023-07-13T16:42:50;0.97;;;0.97;;
934;SDS011;454;53.254;10.400;2023-07-13T16:45:18;0.67;;;0.67;;
934;SDS011;454;53.254;10.400;2023-07-13T16:47:48;0.87;;;0.87;;
934;SDS011;454;53.254;10.400;2023-07-13T16:50:17;0.87;;;0.87;;
934;SDS011;454;53.254;10.400;2023-07-13T16:52:46;1.70;;;1.60;;
934;SDS011;454;53.254;10.400;2023-07-13T16:55:14;0.60;;;0.60;;
934;SDS011;454;53.254;10.400;2023-07-13T16:57:44;0.77;;;0.77;;
934;SDS011;454;53.254;10.400;2023-07-13T17:00:17;0.70;;;0.70;;
934;SDS011;454;53.254;10.400;2023-07-13T17:02:49;0.63;;;0.63;;
934;SDS011;454;53.254;10.400;2023-07-13T17:05:17;0.83;;;0.83;;
934;SDS011;454;53.254;10.400;2023-07-13T17:07:44;0.50;;;0.50;;
934;SDS011;454;53.254;10.400;2023-07-13T17:10:19;1.23;;;0.70;;
934;SDS011;454;53.254;10.400;2023-07-13T17:12:48;1.40;;;1.40;;
934;SDS011;454;53.254;10.400;2023-07-13T17:15:14;0.63;;;0.60;;
934;SDS011;454;53.254;10.400;2023-07-13T17:17:41;0.70;;;0.70;;
934;SDS011;454;53.254;10.400;2023-07-13T17:20:14;0.80;;;0.80;;
934;SDS011;454;53.254;10.400;2023-07-13T17:22:42;0.80;;;0.80;;
934;SDS011;454;53.254;10.400;2023-07-13T17:25:12;0.93;;;0.93;;
934;SDS011;454;53.254;10.400;2023-07-13T17:27:40;0.80;;;0.80;;
934;SDS011;454;53.254;10.400;2023-07-13T17:30:09;1.13;;;1.13;;
934;SDS011;454;53.254;10.400;2023-07-13T17:32:40;1.27;;;0.70;;
934;SDS011;454;53.254;10.400;2023-07-13T17:35:12;0.90;;;0.90;;
934;SDS011;454;53.254;10.400;2023-07-13T17:37:52;1.73;;;0.93;;
934;SDS011;454;53.254;10.400;2023-07-13T17:40:21;0.93;;;0.93;;
934;SDS011;454;53.254;10.400;2023-07-13T17:42:49;0.50;;;0.50;;
934;SDS011;454;53.254;10.400;2023-07-13T17:45:19;3.57;;;1.60;;
934;SDS011;454;53.254;10.400;2023-07-13T17:47:47;1.03;;;1.03;;
934;SDS011;454;53.254;10.400;2023-07-13T17:50:19;1.37;;;1.27;;
934;SDS011;454;53.254;10.400;2023-07-13T17:52:53;1.33;;;1.33;;
934;SDS011;454;53.254;10.400;2023-07-13T17:55:22;0.90;;;0.67;;
934;SDS011;454;53.254;10.400;2023-07-13T17:57:49;0.97;;;0.97;;
934;SDS011;454;53.254;10.400;2023-07-13T18:00:17;1.00;;;1.00;;
934;SDS011;454;53.254;10.400;2023-07-13T18:02:58;0.90;;;0.90;;
934;SDS011;454;53.254;10.400;2023-07-13T18:05:28;0.63;;;0.63;;
934;SDS011;454;53.254;10.400;2023-07-13T18:07:55;0.50;;;0.50;;
934;SDS011;454;53.254;10.400;2023-07-13T18:10:24;0.73;;;0.73;;
934;SDS011;454;53.254;10.400;2023-07-13T18:12:50;0.50;;;0.50;;
934;SDS011;454;53.254;10.400;2023-07-13T18:15:18;1.00;;;1.00;;
934;SDS011;454;53.254;10.400;2023-07-13T18:17:47;0.57;;;0.57;;
934;SDS011;454;53.254;10.400;2023-07-13T18:20:15;0.90;;;0.90;;
934;SDS011;454;53.254;10.400;2023-07-13T18:22:43;1.23;;;1.23;;
934;SDS011;454;53.254;10.400;2023-07-13T18:25:12;0.97;;;0.77;;
934;SDS011;454;53.254;10.400;2023-07-13T18:27:41;0.63;;;0.63;;
934;SDS011;454;53.254;10.400;2023-07-13T18:30:09;2.27;;;0.63;;
934;SDS011;454;53.254;10.400;2023-07-13T18:32:38;1.40;;;0.90;;
934;SDS011;454;53.254;10.400;2023-07-13T18:35:10;0.80;;;0.80;;
934;SDS011;454;53.254;10.400;2023-07-13T18:37:39;0.90;;;0.90;;
934;SDS011;454;53.254;10.400;2023-07-13T18:40:11;0.60;;;0.60;;
934;SDS011;454;53.254;10.400;2023-07-13T18:42:42;0.60;;;0.60;;
934;SDS011;454;53.254;10.400;2023-07-13T18:45:10;0.87;;;0.87;;
934;SDS011;454;53.254;10.400;2023-07-13T18:47:39;1.07;;;1.03;;
934;SDS011;454;53.254;10.400;2023-07-13T18:50:14;0.60;;;0.60;;
934;SDS011;454;53.254;10.400;2023-07-13T18:52:43;0.87;;;0.87;;
934;SDS011;454;53.254;10.400;2023-07-13T18:55:14;0.60;;;0.60;;
934;SDS011;454;53.254;10.400;2023-07-13T18:57:43;1.00;;;1.00;;
934;SDS011;454;53.254;10.400;2023-07-13T19:00:11;0.70;;;0.70;;
934;SDS011;454;53.254;10.400;2023-07-13T19:02:39;0.83;;;0.83;;
934;SDS011;454;53.254;10.400;2023-07-13T19:05:13;0.50;;;0.50;;
934;SDS011;454;53.254;10.400;2023-07-13T19:07:40;2.20;;;0.83;;
934;SDS011;454;53.254;10.400;2023-07-13T19:10:11;0.73;;;0.73;;
934;SDS011;454;53.254;10.400;2023-07-13T19:12:42;0.83;;;0.83;;
934;SDS011;454;53.254;10.400;2023-07-13T19:15:16;0.93;;;0.93;;
934;SDS011;454;53.254;10.400;2023-07-13T19:17:47;3.07;;;1.30;;
934;SDS011;454;53.254;10.400;2023-07-13T19:20:14;1.53;;;0.60;;
934;SDS011;454;53.254;10.400;2023-07-13T19:22:47;1.00;;;1.00;;
934;SDS011;454;53.254;10.400;2023-07-13T19:25:17;1.07;;;1.07;;
934;SDS011;454;53.254;10.400;2023-07-13T19:27:46;1.03;;;0.80;;
934;SDS011;454;53.254;10.400;2023-07-13T19:30:15;0.80;;;0.80;;
934;SDS011;454;53.254;10.400;2023-07-13T19:32:43;1.10;;;1.10;;
934;SDS011;454;53.254;10.400;2023-07-13T19:35:11;0.67;;;0.67;;
934;SDS011;454;53.254;10.400;2023-07-13T19:37:38;0.87;;;0.87;;
934;SDS011;454;53.254;10.400;2023-07-13T19:40:10;1.40;;;1.30;;
934;SDS011;454;53.254;10.400;2023-07-13T19:42:43;0.93;;;0.93;;
934;SDS011;454;53.254;10.400;2023-07-13T19:45:15;3.30;;;0.90;;
934;SDS011;454;53.254;10.400;2023-07-13T19:47:43;4.07;;;1.30;;
934;SDS011;454;53.254;10.400;2023-07-13T19:50:11;0.50;;;0.50;;
934;SDS011;454;53.254;10.400;2023-07-13T19:52:41;0.37;;;0.37;;